Time;durP1;ratioP1;P1;durP2;ratioP2;P2;SDS_P1;SDS_P2;PMS_P1;PMS_P2;Temp;Humidity;BMP_temperature;BMP_pressure;BME280_temperature;BME280_humidity;BME280_pressure;Samples;Min_cycle;Max_cycle;Signal;HPM_P1;HPM_P2
2023/11/30 00:01:01;;;;;;;3.00;2.50;;;;;;;-0.21;100.00;100271.50;6179190;28;20249;-70
2023/11/30 00:04:22;;;;;;;4.40;1.90;;;;;;;-0.21;100.00;100276.81;6170424;28;20237;-69
2023/11/30 00:07:43;;;;;;;3.13;2.83;;;;;;;-0.34;100.00;100272.28;6165719;28;20233;-69
2023/11/30 00:11:06;;;;;;;2.80;2.60;;;;;;;-0.26;100.00;100268.28;6177364;28;20234;-69
2023/11/30 00:14:27;;;;;;;2.23;2.03;;;;;;;-0.31;100.00;100272.94;6179248;28;20320;-69
2023/11/30 00:17:49;;;;;;;3.50;3.20;;;;;;;-0.32;100.00;100276.56;6178875;28;20242;-68
2023/11/30 00:21:10;;;;;;;3.10;2.90;;;;;;;-0.28;100.00;100282.53;6178351;28;21540;-68
2023/11/30 00:24:31;;;;;;;1.83;1.73;;;;;;;-0.26;100.00;100270.91;6178441;28;20234;-68
2023/11/30 00:27:52;;;;;;;3.87;2.77;;;;;;;-0.25;100.00;100279.72;6178027;28;20233;-68
2023/11/30 00:31:13;;;;;;;4.67;2.87;;;;;;;-0.27;100.00;100269.19;6178378;28;20237;-69
2023/11/30 00:34:35;;;;;;;2.60;2.40;;;;;;;-0.39;100.00;100279.59;6185092;28;20237;-68
2023/11/30 00:37:59;;;;;;;3.00;2.50;;;;;;;-0.45;100.00;100282.56;6174416;28;20229;-69
2023/11/30 00:41:20;;;;;;;3.63;3.10;;;;;;;-0.57;100.00;100281.44;6172685;28;20496;-69
2023/11/30 00:44:40;;;;;;;3.37;3.07;;;;;;;-0.55;100.00;100286.66;6173071;28;24846;-68
2023/11/30 00:48:01;;;;;;;4.03;2.63;;;;;;;-0.56;100.00;100280.50;6180612;28;20309;-69
2023/11/30 00:51:23;;;;;;;3.43;2.80;;;;;;;-0.61;100.00;100277.25;6184515;28;20246;-68
2023/11/30 00:54:44;;;;;;;3.43;3.13;;;;;;;-0.65;100.00;100283.66;6180074;28;20580;-69
2023/11/30 00:58:05;;;;;;;2.90;2.53;;;;;;;-0.50;100.00;100288.09;6180324;28;20683;-69
2023/11/30 01:01:26;;;;;;;3.77;3.43;;;;;;;-0.56;100.00;100287.59;6178831;28;20770;-68
2023/11/30 01:04:47;;;;;;;4.13;2.67;;;;;;;-0.57;100.00;100294.69;6185232;28;20253;-68
2023/11/30 01:08:12;;;;;;;3.60;3.13;;;;;;;-0.67;100.00;100301.41;6181950;28;20230;-68
2023/11/30 01:11:33;;;;;;;3.70;3.40;;;;;;;-0.59;100.00;100304.50;6182196;28;20547;-68
2023/11/30 01:14:54;;;;;;;4.60;2.97;;;;;;;-0.58;100.00;100294.72;6184068;28;20234;-69
2023/11/30 01:18:14;;;;;;;3.67;2.67;;;;;;;-0.55;100.00;100294.59;6167944;28;20587;-69
2023/11/30 01:21:35;;;;;;;3.63;3.33;;;;;;;-0.60;100.00;100301.91;6154024;28;20230;-68
2023/11/30 01:24:58;;;;;;;3.60;3.30;;;;;;;-0.61;100.00;100301.06;6179915;28;20241;-69
2023/11/30 01:28:19;;;;;;;4.43;4.03;;;;;;;-0.53;100.00;100304.16;6168796;28;20233;-70
2023/11/30 01:31:41;;;;;;;3.70;2.93;;;;;;;-0.47;100.00;100302.97;6177826;28;20234;-67
2023/11/30 01:35:03;;;;;;;3.03;2.70;;;;;;;-0.62;100.00;100303.78;6182617;28;20230;-68
2023/11/30 01:38:26;;;;;;;3.83;3.57;;;;;;;-0.53;100.00;100298.00;6182212;28;20234;-68
2023/11/30 01:41:49;;;;;;;5.10;4.33;;;;;;;-0.39;100.00;100304.28;6167393;28;20266;-68
2023/11/30 01:45:10;;;;;;;5.37;4.37;;;;;;;-0.39;100.00;100296.34;6182606;28;20233;-68
2023/11/30 01:48:32;;;;;;;3.77;3.03;;;;;;;-0.33;100.00;100295.13;6181202;28;20313;-69
2023/11/30 01:51:52;;;;;;;5.47;3.53;;;;;;;-0.49;100.00;100288.97;6182364;28;20268;-67
2023/11/30 01:55:14;;;;;;;5.10;4.43;;;;;;;-0.61;100.00;100284.31;6183203;28;20262;-68
2023/11/30 01:58:37;;;;;;;3.93;3.40;;;;;;;-0.60;100.00;100291.31;6177527;28;20491;-67
2023/11/30 02:01:58;;;;;;;6.80;5.00;;;;;;;-0.67;100.00;100285.53;6167561;28;20328;-68
2023/11/30 02:05:19;;;;;;;3.93;3.53;;;;;;;-0.61;100.00;100290.47;6167638;28;20225;-68
2023/11/30 02:08:40;;;;;;;5.87;3.73;;;;;;;-0.31;100.00;100296.78;6168296;28;20225;-68
2023/11/30 02:12:00;;;;;;;3.30;3.00;;;;;;;-0.25;100.00;100285.84;6181492;28;20676;-68
2023/11/30 02:15:24;;;;;;;4.93;3.87;;;;;;;-0.42;100.00;100282.41;6181812;28;20321;-69
2023/11/30 02:18:44;;;;;;;4.37;3.87;;;;;;;-0.43;100.00;100286.00;6162947;28;20250;-68
2023/11/30 02:22:07;;;;;;;4.60;3.97;;;;;;;-0.51;100.00;100281.13;6180015;28;20230;-69
2023/11/30 02:25:27;;;;;;;3.97;3.60;;;;;;;-0.59;100.00;100275.38;6165823;28;20506;-68
2023/11/30 02:28:48;;;;;;;3.87;3.57;;;;;;;-0.44;100.00;100277.19;6178205;28;20253;-69
2023/11/30 02:32:09;;;;;;;5.47;4.20;;;;;;;-0.43;100.00;100270.09;6154679;28;21495;-69
2023/11/30 02:35:30;;;;;;;3.73;3.43;;;;;;;-0.44;100.00;100271.88;6177090;28;20380;-68
2023/11/30 02:38:53;;;;;;;4.63;4.27;;;;;;;-0.52;100.00;100268.81;6171934;28;20234;-68
2023/11/30 02:42:14;;;;;;;3.83;3.03;;;;;;;-0.53;100.00;100271.53;6177371;28;20320;-68
2023/11/30 02:45:35;;;;;;;4.50;3.73;;;;;;;-0.59;100.00;100269.22;6176433;28;20575;-68
2023/11/30 02:48:57;;;;;;;4.17;3.83;;;;;;;-0.61;100.00;100263.16;6174686;28;20325;-68
2023/11/30 02:52:18;;;;;;;7.43;4.63;;;;;;;-0.57;100.00;100270.84;6175314;28;20542;-69
2023/11/30 02:55:40;;;;;;;5.27;4.77;;;;;;;-0.47;100.00;100271.22;6168788;28;20237;-68
2023/11/30 02:59:01;;;;;;;4.93;4.43;;;;;;;-0.42;100.00;100272.69;6163563;28;20514;-68
2023/11/30 03:02:22;;;;;;;7.30;4.33;;;;;;;-0.40;100.00;100267.31;6166017;28;20312;-68
2023/11/30 03:05:43;;;;;;;4.87;4.27;;;;;;;-0.48;100.00;100273.00;6178219;28;20234;-69
2023/11/30 03:09:04;;;;;;;4.83;4.33;;;;;;;-0.42;100.00;100272.69;6164836;28;20229;-69
2023/11/30 03:12:27;;;;;;;4.73;4.20;;;;;;;-0.43;100.00;100273.63;6187932;28;20229;-68
2023/11/30 03:15:48;;;;;;;4.50;4.07;;;;;;;-0.15;100.00;100271.16;6172899;28;20238;-68
2023/11/30 03:19:09;;;;;;;5.67;3.93;;;;;;;-0.04;100.00;100271.44;6176827;28;21313;-69
2023/11/30 03:22:30;;;;;;;6.40;5.80;;;;;;;-0.16;100.00;100256.22;6176724;28;20261;-68
2023/11/30 03:25:50;;;;;;;5.23;4.77;;;;;;;-0.23;100.00;100268.09;6189128;28;20313;-69
2023/11/30 03:29:13;;;;;;;6.13;4.47;;;;;;;-0.19;100.00;100259.03;6187836;28;20635;-69
2023/11/30 03:32:34;;;;;;;4.90;4.13;;;;;;;-0.23;100.00;100257.50;6165696;28;20225;-68
2023/11/30 03:35:55;;;;;;;4.27;3.87;;;;;;;-0.17;100.00;100262.44;6175243;28;20241;-68
2023/11/30 03:39:16;;;;;;;5.00;4.60;;;;;;;-0.26;100.00;100259.47;6173647;28;20231;-68
2023/11/30 03:42:37;;;;;;;4.50;4.10;;;;;;;-0.17;100.00;100259.81;6188799;28;20226;-68
2023/11/30 03:45:59;;;;;;;5.30;4.70;;;;;;;-0.43;100.00;100262.16;6188448;28;20651;-68
2023/11/30 03:49:20;;;;;;;6.13;5.47;;;;;;;-0.53;100.00;100263.59;6188015;28;20233;-68
2023/11/30 03:52:41;;;;;;;5.67;4.90;;;;;;;-0.51;100.00;100270.53;6188201;28;20250;-68
2023/11/30 03:56:02;;;;;;;6.53;5.00;;;;;;;-0.72;100.00;100276.94;6186023;28;20238;-68
2023/11/30 03:59:23;;;;;;;5.20;4.00;;;;;;;-0.83;100.00;100276.66;6180844;28;20225;-68
2023/11/30 04:02:45;;;;;;;4.27;3.83;;;;;;;-0.85;100.00;100270.59;6165542;28;20230;-68
2023/11/30 04:06:06;;;;;;;6.37;4.70;;;;;;;-0.95;100.00;100267.56;6182032;28;20236;-67
2023/11/30 04:09:27;;;;;;;5.20;4.70;;;;;;;-0.77;100.00;100264.91;6167647;28;20238;-68
2023/11/30 04:12:49;;;;;;;6.23;4.07;;;;;;;-0.57;100.00;100268.22;6184596;28;20229;-68
2023/11/30 04:16:10;;;;;;;5.50;4.77;;;;;;;-0.43;100.00;100260.38;6179435;28;20570;-68
2023/11/30 04:19:33;;;;;;;5.20;4.67;;;;;;;-0.44;100.00;100268.41;6182903;28;20238;-68
2023/11/30 04:22:54;;;;;;;6.60;4.80;;;;;;;-0.18;100.00;100257.25;6176973;28;20234;-68
2023/11/30 04:26:15;;;;;;;5.77;4.90;;;;;;;-0.10;100.00;100260.31;6176905;28;20324;-68
2023/11/30 04:29:36;;;;;;;9.43;6.97;;;;;;;-0.33;100.00;100256.28;6182868;28;20246;-68
2023/11/30 04:32:57;;;;;;;7.67;5.50;;;;;;;-0.13;100.00;100260.50;6168676;28;20261;-68
2023/11/30 04:36:22;;;;;;;6.90;6.20;;;;;;;-0.10;100.00;100258.53;6170586;28;20225;-67
2023/11/30 04:39:44;;;;;;;6.30;5.67;;;;;;;-0.07;100.00;100260.16;6181820;28;20237;-68
2023/11/30 04:43:06;;;;;;;7.33;6.63;;;;;;;-0.12;100.00;100251.63;6176948;28;20253;-68
2023/11/30 04:46:27;;;;;;;8.77;6.33;;;;;;;-0.10;100.00;100253.25;6180874;28;20543;-67
2023/11/30 04:49:48;;;;;;;9.97;7.10;;;;;;;-0.14;100.00;100256.13;6169533;28;20238;-70
2023/11/30 04:53:10;;;;;;;8.07;5.97;;;;;;;-0.20;100.00;100245.88;6179879;28;20230;-67
2023/11/30 04:56:31;;;;;;;7.23;6.53;;;;;;;-0.28;100.00;100242.81;6183440;28;20230;-68
2023/11/30 04:59:52;;;;;;;6.53;5.87;;;;;;;-0.26;100.00;100243.56;6180702;28;20246;-67
2023/11/30 05:03:13;;;;;;;6.23;5.63;;;;;;;-0.25;100.00;100242.66;6181300;28;20242;-68
2023/11/30 05:06:34;;;;;;;6.73;5.60;;;;;;;-0.59;100.00;100240.13;6177561;28;20242;-68
2023/11/30 05:09:56;;;;;;;7.60;6.57;;;;;;;-0.58;100.00;100252.38;6177774;28;20648;-69
2023/11/30 05:13:17;;;;;;;10.17;7.53;;;;;;;-0.71;100.00;100248.72;6177587;28;20242;-69
2023/11/30 05:16:38;;;;;;;12.47;8.60;;;;;;;-0.76;100.00;100248.94;6178191;28;20238;-68
2023/11/30 05:20:01;;;;;;;13.23;11.83;;;;;;;-0.93;100.00;100262.19;6179033;28;20253;-68
2023/11/30 05:23:22;;;;;;;8.27;6.63;;;;;;;-1.04;100.00;100269.81;6170730;28;20245;-68
2023/11/30 05:26:45;;;;;;;15.10;12.43;;;;;;;-0.81;100.00;100259.75;6175244;28;20230;-69
2023/11/30 05:30:08;;;;;;;11.97;10.10;;;;;;;-0.97;100.00;100258.84;6177966;28;20245;-69
2023/11/30 05:33:30;;;;;;;15.63;8.00;;;;;;;-1.00;100.00;100259.00;6176922;28;20237;-68
2023/11/30 05:36:51;;;;;;;9.47;6.93;;;;;;;-1.00;100.00;100260.81;6170989;28;20234;-68
2023/11/30 05:40:16;;;;;;;8.30;5.97;;;;;;;-0.97;100.00;100271.22;6181961;28;20238;-67
2023/11/30 05:43:38;;;;;;;7.80;6.20;;;;;;;-1.07;100.00;100270.84;6181594;28;20493;-69
2023/11/30 05:46:59;;;;;;;7.80;6.43;;;;;;;-1.15;100.00;100275.66;6180888;28;20230;-68
2023/11/30 05:50:20;;;;;;;8.37;6.60;;;;;;;-1.19;100.00;100274.09;6182427;28;20264;-68
2023/11/30 05:53:41;;;;;;;5.83;5.27;;;;;;;-1.23;100.00;100279.63;6180900;28;20230;-68
2023/11/30 05:57:02;;;;;;;7.27;6.20;;;;;;;-1.23;100.00;100269.06;6181556;28;20233;-68
2023/11/30 06:00:25;;;;;;;10.00;6.70;;;;;;;-1.02;100.00;100268.81;6178869;28;20229;-67
2023/11/30 06:03:46;;;;;;;7.60;6.80;;;;;;;-1.00;100.00;100272.22;6182062;28;20226;-68
2023/11/30 06:07:07;;;;;;;7.43;5.87;;;;;;;-1.11;100.00;100264.00;6182122;28;20238;-67
2023/11/30 06:10:28;;;;;;;7.60;6.03;;;;;;;-1.10;100.00;100278.06;6181236;28;20612;-68
2023/11/30 06:13:48;;;;;;;6.87;5.77;;;;;;;-1.06;100.00;100279.63;6178303;28;20230;-68
2023/11/30 06:17:17;;;;;;;11.40;7.33;;;;;;;-1.07;100.00;100273.50;6182365;28;20242;-69
2023/11/30 06:20:38;;;;;;;9.90;6.33;;;;;;;-1.18;100.00;100275.81;6180444;28;20233;-69
2023/11/30 06:23:59;;;;;;;7.63;6.03;;;;;;;-1.30;100.00;100283.50;6181905;28;20882;-69
2023/11/30 06:27:20;;;;;;;9.47;6.50;;;;;;;-1.40;100.00;100277.84;6172501;28;20230;-67
2023/11/30 06:30:41;;;;;;;8.43;6.50;;;;;;;-1.38;100.00;100283.03;6180434;28;20557;-68
2023/11/30 06:34:03;;;;;;;8.07;7.27;;;;;;;-1.41;100.00;100291.97;6167227;28;20237;-68
2023/11/30 06:37:24;;;;;;;8.37;7.17;;;;;;;-1.49;100.00;100306.47;6181657;28;20237;-68
2023/11/30 06:40:45;;;;;;;7.57;5.83;;;;;;;-1.58;100.00;100304.28;6178878;28;20238;-68
2023/11/30 06:44:06;;;;;;;10.93;9.83;;;;;;;-1.68;100.00;100301.25;6176246;28;20222;-68
2023/11/30 06:47:27;;;;;;;6.53;5.63;;;;;;;-1.72;100.00;100303.19;6175932;28;20229;-68
2023/11/30 06:50:49;;;;;;;12.43;7.63;;;;;;;-1.62;100.00;100309.72;6175135;28;20225;-69
2023/11/30 06:54:11;;;;;;;9.07;6.87;;;;;;;-1.62;100.00;100311.50;6172556;28;20608;-68
2023/11/30 06:57:32;;;;;;;9.47;7.53;;;;;;;-1.69;100.00;100307.47;6169025;28;20612;-68
2023/11/30 07:00:53;;;;;;;7.67;6.83;;;;;;;-1.71;100.00;100309.34;6174842;28;20245;-69
2023/11/30 07:04:14;;;;;;;9.13;7.33;;;;;;;-1.76;100.00;100306.03;6171365;28;20237;-68
2023/11/30 07:07:36;;;;;;;10.10;6.63;;;;;;;-1.75;100.00;100311.25;6174234;28;20238;-69
2023/11/30 07:10:57;;;;;;;7.73;6.63;;;;;;;-1.79;100.00;100320.25;6176162;28;20699;-68
2023/11/30 07:14:18;;;;;;;9.90;6.70;;;;;;;-1.63;100.00;100323.84;6175526;28;20561;-68
2023/11/30 07:17:39;;;;;;;10.10;6.73;;;;;;;-1.55;100.00;100325.28;6170378;28;20255;-69
2023/11/30 07:21:00;;;;;;;11.23;7.53;;;;;;;-1.50;100.00;100329.41;6179548;28;20238;-68
2023/11/30 07:24:22;;;;;;;8.63;7.53;;;;;;;-1.55;100.00;100322.63;6158910;28;20234;-69
2023/11/30 07:27:43;;;;;;;9.70;8.73;;;;;;;-1.52;100.00;100319.88;6180451;28;20738;-69
2023/11/30 07:31:05;;;;;;;8.13;7.23;;;;;;;-1.64;100.00;100323.94;6179836;28;20237;-68
2023/11/30 07:34:26;;;;;;;13.70;8.10;;;;;;;-1.56;100.00;100328.88;6181765;28;20250;-68
2023/11/30 07:37:47;;;;;;;10.93;9.73;;;;;;;-1.50;100.00;100328.56;6181115;28;20229;-70
2023/11/30 07:41:11;;;;;;;23.20;16.03;;;;;;;-1.56;100.00;100336.81;6179851;28;20225;-69
2023/11/30 07:44:32;;;;;;;12.87;9.90;;;;;;;-1.71;100.00;100335.75;6168418;28;20246;-69
2023/11/30 07:47:53;;;;;;;12.17;8.77;;;;;;;-1.51;100.00;100332.13;6151530;28;20230;-68
2023/11/30 07:51:14;;;;;;;10.40;8.17;;;;;;;-1.48;100.00;100332.00;6180321;28;20237;-67
2023/11/30 07:54:35;;;;;;;12.27;8.70;;;;;;;-1.53;100.00;100334.00;6180520;28;20238;-69
2023/11/30 07:57:57;;;;;;;12.77;8.07;;;;;;;-1.50;100.00;100333.84;6184154;28;20233;-68
2023/11/30 08:01:18;;;;;;;9.50;8.17;;;;;;;-1.34;100.00;100334.81;6173977;28;20241;-69
2023/11/30 08:04:41;;;;;;;8.07;6.80;;;;;;;-1.19;100.00;100340.19;6174683;28;20234;-68
2023/11/30 08:08:02;;;;;;;13.33;8.63;;;;;;;-1.16;100.00;100344.47;6177834;28;20226;-68
2023/11/30 08:11:22;;;;;;;10.97;9.33;;;;;;;-0.67;100.00;100334.94;6165499;28;20230;-68
2023/11/30 08:14:45;;;;;;;10.30;8.20;;;;;;;-0.74;100.00;100344.09;6165419;28;20226;-69
2023/11/30 08:18:07;;;;;;;14.17;11.80;;;;;;;-0.29;100.00;100339.03;6153043;28;20235;-68
2023/11/30 08:21:28;;;;;;;9.87;8.60;;;;;;;-0.10;100.00;100337.13;6178919;28;20238;-69
2023/11/30 08:24:49;;;;;;;10.53;8.00;;;;;;;-0.06;100.00;100339.53;6179862;28;20507;-69
2023/11/30 08:28:10;;;;;;;10.23;8.37;;;;;;;-0.41;100.00;100343.22;6179429;28;20233;-68
2023/11/30 08:31:33;;;;;;;10.33;7.77;;;;;;;-0.66;100.00;100352.50;6182472;28;20659;-68
2023/11/30 08:34:54;;;;;;;10.87;8.87;;;;;;;-0.53;100.00;100349.16;6184588;28;20241;-68
2023/11/30 08:38:18;;;;;;;13.57;10.37;;;;;;;-0.35;100.00;100350.84;6183117;28;20679;-69
2023/11/30 08:41:39;;;;;;;12.20;9.70;;;;;;;-0.59;100.00;100356.56;6181695;28;20510;-69
2023/11/30 08:45:00;;;;;;;11.90;8.73;;;;;;;-0.79;100.00;100356.72;6183997;28;20505;-69
2023/11/30 08:48:22;;;;;;;12.43;10.07;;;;;;;-0.89;100.00;100351.03;6181211;28;20292;-69
2023/11/30 08:51:44;;;;;;;11.97;8.90;;;;;;;-0.78;100.00;100351.34;6170770;28;20234;-69
2023/11/30 08:55:05;;;;;;;13.77;9.80;;;;;;;-0.53;100.00;100361.53;6185456;28;20230;-69
2023/11/30 08:58:26;;;;;;;16.03;13.30;;;;;;;-0.45;100.00;100362.84;6182659;28;20265;-68
2023/11/30 09:01:46;;;;;;;13.30;9.97;;;;;;;-0.42;100.00;100359.19;6179254;28;20813;-69
2023/11/30 09:05:11;;;;;;;12.60;9.10;;;;;;;-0.18;100.00;100365.81;6180647;28;20233;-69
2023/11/30 09:08:33;;;;;;;15.43;9.47;;;;;;;-0.18;100.00;100358.75;6179815;28;20263;-68
2023/11/30 09:11:54;;;;;;;14.93;10.80;;;;;;;-0.49;100.00;100363.94;6165770;28;20233;-68
2023/11/30 09:15:15;;;;;;;12.60;9.37;;;;;;;-0.48;100.00;100357.69;6182549;28;20230;-68
2023/11/30 09:18:36;;;;;;;14.03;8.63;;;;;;;-0.27;100.00;100368.97;6156733;28;20238;-68
2023/11/30 09:21:59;;;;;;;12.20;7.80;;;;;;;-0.04;100.00;100361.50;6181836;28;20237;-68
2023/11/30 09:25:20;;;;;;;12.70;11.43;;;;;;;0.02;100.00;100351.53;6180189;28;20250;-69
2023/11/30 09:28:41;;;;;;;10.00;7.57;;;;;;;0.05;100.00;100348.69;6182321;28;20241;-68
2023/11/30 09:32:03;;;;;;;10.97;9.20;;;;;;;-0.49;100.00;100353.34;6180561;28;20325;-68
2023/11/30 09:35:24;;;;;;;10.40;7.30;;;;;;;-0.59;100.00;100349.47;6183144;28;20233;-68
2023/11/30 09:38:46;;;;;;;11.93;8.73;;;;;;;-0.46;100.00;100360.28;6182765;28;20233;-69
2023/11/30 09:42:09;;;;;;;11.60;7.83;;;;;;;-0.55;100.00;100363.41;6168075;28;20238;-67
2023/11/30 09:45:30;;;;;;;11.00;7.97;;;;;;;-0.77;100.00;100360.97;6180557;28;20628;-68
2023/11/30 09:48:51;;;;;;;15.77;10.63;;;;;;;-0.63;100.00;100355.00;6182769;28;20233;-68
2023/11/30 09:52:12;;;;;;;9.70;8.70;;;;;;;-0.67;100.00;100364.91;6183340;28;20221;-68
2023/11/30 09:55:35;;;;;;;15.10;9.20;;;;;;;-0.68;100.00;100360.53;6183765;28;20261;-68
2023/11/30 09:58:56;;;;;;;11.57;8.90;;;;;;;-0.83;100.00;100364.81;6183335;28;20560;-70
2023/11/30 10:02:18;;;;;;;13.63;9.40;;;;;;;-0.79;100.00;100354.09;6182803;28;20233;-70
2023/11/30 10:05:38;;;;;;;11.50;7.53;;;;;;;-0.84;100.00;100355.19;6180705;28;20233;-68
2023/11/30 10:09:01;;;;;;;11.20;7.93;;;;;;;-0.64;100.00;100348.84;6182618;28;20233;-69
2023/11/30 10:12:24;;;;;;;12.50;8.40;;;;;;;-0.34;100.00;100341.97;6183035;28;20516;-68
2023/11/30 10:15:45;;;;;;;12.87;8.33;;;;;;;-0.26;100.00;100333.59;6178514;28;20727;-69
2023/11/30 10:19:07;;;;;;;14.93;9.33;;;;;;;-0.37;100.00;100342.13;6180906;28;20320;-68
2023/11/30 10:22:30;;;;;;;11.33;8.77;;;;;;;-0.02;100.00;100338.44;6182198;28;20241;-68
2023/11/30 10:25:52;;;;;;;12.93;10.00;;;;;;;1.05;100.00;100325.28;6180974;28;20226;-67
2023/11/30 10:29:20;;;;;;;10.87;9.33;;;;;;;1.62;100.00;100321.81;6180674;28;20802;-68
2023/11/30 10:32:44;;;;;;;10.97;8.67;;;;;;;1.80;100.00;100315.34;6181433;28;20572;-67
2023/11/30 10:36:07;;;;;;;10.47;8.37;;;;;;;1.46;100.00;100313.06;6182616;28;20234;-68
2023/11/30 10:39:31;;;;;;;8.63;7.03;;;;;;;1.50;100.00;100310.09;6182249;28;25304;-68
2023/11/30 10:42:52;;;;;;;8.50;7.10;;;;;;;0.95;100.00;100301.09;6181009;28;20344;-68
2023/11/30 10:46:16;;;;;;;10.37;7.90;;;;;;;1.24;100.00;100304.66;6167405;28;20271;-69
2023/11/30 10:49:38;;;;;;;9.23;6.97;;;;;;;1.36;100.00;100317.19;6181836;28;20229;-68
2023/11/30 10:52:59;;;;;;;10.27;7.20;;;;;;;1.21;100.00;100303.03;6181759;28;20237;-67
2023/11/30 10:56:22;;;;;;;10.10;9.10;;;;;;;1.25;100.00;100295.78;6167197;28;20313;-69
2023/11/30 10:59:43;;;;;;;7.37;6.67;;;;;;;1.18;100.00;100297.94;6172795;28;20246;-68
2023/11/30 11:03:09;;;;;;;9.37;8.03;;;;;;;1.04;100.00;100292.59;6173127;28;20809;-68
2023/11/30 11:06:33;;;;;;;10.73;6.03;;;;;;;1.06;100.00;100300.47;6175262;28;20324;-68
2023/11/30 11:09:55;;;;;;;10.00;9.07;;;;;;;1.23;100.00;100293.19;6166289;28;20230;-68
2023/11/30 11:13:22;;;;;;;6.93;5.10;;;;;;;1.61;100.00;100283.75;6172957;28;20233;-68
2023/11/30 11:16:44;;;;;;;18.73;15.60;;;;;;;1.67;100.00;100287.00;6173838;28;20261;-67
2023/11/30 11:20:09;;;;;;;17.00;15.20;;;;;;;1.67;100.00;100290.47;6173939;28;20234;-69
2023/11/30 11:23:39;;;;;;;10.00;8.83;;;;;;;1.50;100.00;100283.56;6173392;28;20233;-68
2023/11/30 11:27:03;;;;;;;9.47;5.47;;;;;;;1.44;100.00;100278.63;6174933;28;20238;-68
2023/11/30 11:30:26;;;;;;;11.33;7.47;;;;;;;1.12;100.00;100278.88;6166683;28;20230;-68
2023/11/30 11:33:47;;;;;;;7.77;6.70;;;;;;;0.87;100.00;100283.91;6186225;28;20230;-69
2023/11/30 11:37:09;;;;;;;13.67;8.50;;;;;;;1.37;100.00;100282.63;6180216;28;20340;-69
2023/11/30 11:40:30;;;;;;;8.43;7.63;;;;;;;1.53;100.00;100269.25;6172615;28;20233;-68
2023/11/30 11:43:51;;;;;;;7.10;5.57;;;;;;;1.49;100.00;100273.91;6179344;28;20336;-68
2023/11/30 11:47:12;;;;;;;9.17;6.07;;;;;;;2.02;100.00;100259.94;6173357;28;20233;-68
2023/11/30 11:50:33;;;;;;;8.13;7.30;;;;;;;1.71;100.00;100273.41;6180124;28;20234;-68
2023/11/30 11:53:56;;;;;;;8.17;6.53;;;;;;;1.53;100.00;100266.59;6185162;28;20233;-68
2023/11/30 11:57:18;;;;;;;5.77;5.23;;;;;;;1.31;100.00;100266.19;6181696;28;20229;-69
2023/11/30 12:00:38;;;;;;;6.20;5.60;;;;;;;1.22;100.00;100270.25;6164382;28;20229;-70
2023/11/30 12:04:00;;;;;;;7.37;6.67;;;;;;;0.85;100.00;100268.09;6176353;28;20620;-71
2023/11/30 12:07:21;;;;;;;5.53;5.03;;;;;;;0.89;100.00;100266.09;6178576;28;20336;-71
2023/11/30 12:10:46;;;;;;;7.00;6.30;;;;;;;0.94;100.00;100264.88;6176866;28;20543;-71
2023/11/30 12:14:08;;;;;;;6.30;5.37;;;;;;;0.99;100.00;100265.47;6171677;28;20234;-71
2023/11/30 12:17:29;;;;;;;6.43;5.80;;;;;;;0.95;100.00;100263.94;6162286;28;20329;-71
2023/11/30 12:20:50;;;;;;;6.37;5.50;;;;;;;0.90;100.00;100263.34;6181210;28;20261;-71
2023/11/30 12:24:11;;;;;;;6.53;5.93;;;;;;;0.60;100.00;100267.81;6134508;28;20241;-71
2023/11/30 12:27:33;;;;;;;5.47;4.70;;;;;;;0.57;100.00;100267.97;6183882;28;20245;-71
2023/11/30 12:30:54;;;;;;;7.93;6.23;;;;;;;0.70;100.00;100271.63;6171897;28;20230;-71
2023/11/30 12:34:15;;;;;;;5.27;4.67;;;;;;;0.63;100.00;100262.31;6169555;28;20237;-70
2023/11/30 12:37:37;;;;;;;6.00;5.40;;;;;;;0.81;100.00;100271.88;6172566;28;20241;-70
2023/11/30 12:40:58;;;;;;;8.77;6.87;;;;;;;0.76;100.00;100266.84;6173664;28;20230;-70
2023/11/30 12:44:21;;;;;;;6.67;6.07;;;;;;;0.69;100.00;100275.22;6173054;28;20241;-71
2023/11/30 12:47:43;;;;;;;6.17;5.57;;;;;;;0.66;100.00;100275.41;6175778;28;20242;-71
2023/11/30 12:51:05;;;;;;;6.33;5.57;;;;;;;0.45;100.00;100284.59;6174840;28;20229;-71
2023/11/30 12:54:26;;;;;;;5.10;4.33;;;;;;;0.61;100.00;100280.13;6169251;28;20234;-71
2023/11/30 12:57:48;;;;;;;5.80;5.10;;;;;;;0.98;100.00;100286.81;6174695;28;20233;-72
2023/11/30 13:01:10;;;;;;;5.20;4.70;;;;;;;1.12;100.00;100286.81;6180943;28;20234;-71
2023/11/30 13:04:31;;;;;;;5.77;5.13;;;;;;;1.03;100.00;100290.88;6180264;28;20238;-71
2023/11/30 13:07:52;;;;;;;4.60;4.17;;;;;;;1.16;100.00;100299.81;6169100;28;20658;-70
2023/11/30 13:11:12;;;;;;;5.27;4.10;;;;;;;1.11;100.00;100298.38;6173826;28;20230;-70
2023/11/30 13:14:33;;;;;;;6.37;4.90;;;;;;;1.02;100.00;100306.91;6171318;28;20755;-70
2023/11/30 13:17:57;;;;;;;15.83;13.10;;;;;;;0.94;100.00;100298.53;6160688;28;20244;-71
2023/11/30 13:21:18;;;;;;;10.70;9.67;;;;;;;1.21;100.00;100292.44;6176547;28;20320;-71
2023/11/30 13:24:40;;;;;;;8.50;7.40;;;;;;;1.36;100.00;100296.81;6176352;28;20365;-71
2023/11/30 13:28:02;;;;;;;6.53;5.13;;;;;;;1.20;100.00;100295.19;6180380;28;20249;-71
2023/11/30 13:31:23;;;;;;;5.83;5.20;;;;;;;1.10;100.00;100289.59;6175369;28;20255;-71
2023/11/30 13:34:45;;;;;;;6.33;5.37;;;;;;;1.01;100.00;100290.13;6178390;28;20355;-70
2023/11/30 13:38:09;;;;;;;6.57;5.20;;;;;;;1.06;100.00;100297.81;6179460;28;20226;-70
2023/11/30 13:41:30;;;;;;;5.63;5.13;;;;;;;1.08;100.00;100295.91;6179917;28;20242;-70
2023/11/30 13:44:51;;;;;;;6.37;5.63;;;;;;;1.10;100.00;100294.88;6176614;28;20241;-71
2023/11/30 13:48:14;;;;;;;6.93;6.23;;;;;;;1.18;100.00;100289.97;6176579;28;20246;-70
2023/11/30 13:51:36;;;;;;;5.20;4.70;;;;;;;1.26;100.00;100295.66;6177078;28;20241;-71
2023/11/30 13:54:59;;;;;;;6.57;5.83;;;;;;;1.13;100.00;100299.13;6176234;28;20230;-70
2023/11/30 13:58:21;;;;;;;6.13;5.30;;;;;;;0.57;100.00;100303.31;6171890;28;20233;-71
2023/11/30 14:01:44;;;;;;;5.60;4.83;;;;;;;0.59;100.00;100304.06;6178059;28;20225;-71
2023/11/30 14:05:11;;;;;;;5.73;5.23;;;;;;;0.38;100.00;100297.34;6176056;28;20250;-70
2023/11/30 14:08:33;;;;;;;6.13;5.63;;;;;;;0.39;100.00;100303.50;6174610;28;20230;-72
2023/11/30 14:11:54;;;;;;;6.47;5.73;;;;;;;0.43;100.00;100303.25;6171392;28;20246;-71
2023/11/30 14:15:16;;;;;;;5.87;5.30;;;;;;;0.67;100.00;100293.88;6168801;28;20234;-70
2023/11/30 14:18:37;;;;;;;7.73;7.03;;;;;;;0.86;100.00;100287.50;6172478;28;20233;-71
2023/11/30 14:21:59;;;;;;;11.20;10.10;;;;;;;0.78;100.00;100290.59;6172329;28;20295;-71
2023/11/30 14:25:21;;;;;;;8.13;6.87;;;;;;;0.87;100.00;100292.72;6175709;28;20258;-72
2023/11/30 14:28:47;;;;;;;7.97;5.93;;;;;;;0.47;100.00;100307.44;6167034;28;20659;-71
2023/11/30 14:32:08;;;;;;;6.53;5.07;;;;;;;0.60;100.00;100308.44;6169829;28;20230;-70
2023/11/30 14:35:29;;;;;;;5.43;4.93;;;;;;;-0.05;100.00;100311.25;6174285;28;21007;-70
2023/11/30 14:38:50;;;;;;;6.20;5.60;;;;;;;0.12;100.00;100308.56;6152602;28;20233;-69
2023/11/30 14:42:13;;;;;;;8.33;6.73;;;;;;;0.22;100.00;100311.53;6169059;28;20242;-70
2023/11/30 14:45:34;;;;;;;6.40;5.57;;;;;;;0.32;100.00;100310.06;6169716;28;20238;-71
2023/11/30 14:48:55;;;;;;;6.90;6.23;;;;;;;0.55;100.00;100314.94;6175441;28;20230;-69
2023/11/30 14:52:27;;;;;;;8.53;7.10;;;;;;;0.62;100.00;100319.81;6172160;28;20317;-70
2023/11/30 14:55:48;;;;;;;7.87;7.13;;;;;;;0.37;100.00;100321.28;6178157;28;20364;-71
2023/11/30 14:59:11;;;;;;;8.20;7.00;;;;;;;0.34;100.00;100309.06;6170275;28;20234;-70
2023/11/30 15:02:32;;;;;;;11.00;7.70;;;;;;;0.49;100.00;100315.28;6148928;28;20234;-70
2023/11/30 15:05:53;;;;;;;7.37;5.93;;;;;;;0.58;100.00;100326.25;6148241;28;20242;-70
2023/11/30 15:09:15;;;;;;;6.30;5.70;;;;;;;0.20;100.00;100330.19;6146410;28;20234;-70
2023/11/30 15:12:36;;;;;;;8.30;6.57;;;;;;;0.38;100.00;100334.44;6148844;28;20628;-71
2023/11/30 15:15:58;;;;;;;8.33;7.43;;;;;;;0.46;100.00;100340.16;6136915;28;20328;-70
2023/11/30 15:19:19;;;;;;;7.70;5.93;;;;;;;0.48;100.00;100343.59;6153100;28;20502;-70
2023/11/30 15:22:43;;;;;;;6.97;5.07;;;;;;;0.15;100.00;100344.63;6114100;28;20238;-70
2023/11/30 15:26:04;;;;;;;7.53;6.83;;;;;;;0.34;100.00;100345.31;6149675;28;20233;-70